Time;durP1;ratioP1;P1;durP2;ratioP2;P2;SDS_P1;SDS_P2;PMS_P1;PMS_P2;Temp;Humidity;BMP_temperature;BMP_pressure;BME280_temperature;BME280_humidity;BME280_pressure;Samples;Min_cycle;Max_cycle;Signal;HPM_P1;HPM_P2
2024/01/31 00:02:18;;;;;;;14.98;7.95;;;;;;;;;;5068169;28;20047;-70
2024/01/31 00:04:45;;;;;;;16.45;9.38;;;;;;;;;;5066973;28;20052;-70
2024/01/31 00:07:11;;;;;;;17.85;8.23;;;;;;;;;;5066110;28;20664;-66
2024/01/31 00:09:38;;;;;;;13.98;7.97;;;;;;;;;;5066376;28;20051;-72
2024/01/31 00:12:04;;;;;;;17.05;8.65;;;;;;;;;;5065665;28;20040;-69
2024/01/31 00:14:31;;;;;;;17.73;7.85;;;;;;;;;;5065789;28;20480;-67
2024/01/31 00:16:58;;;;;;;16.13;7.15;;;;;;;;;;5065796;28;20063;-70
2024/01/31 00:19:25;;;;;;;13.60;7.18;;;;;;;;;;5047294;28;20045;-66
2024/01/31 00:21:51;;;;;;;14.30;8.50;;;;;;;;;;5065660;28;20481;-70
2024/01/31 00:24:18;;;;;;;13.73;7.70;;;;;;;;;;5066011;28;20041;-69
2024/01/31 00:26:45;;;;;;;13.85;7.65;;;;;;;;;;5067084;28;20049;-71
2024/01/31 00:29:11;;;;;;;20.33;7.50;;;;;;;;;;5068410;28;20045;-67
2024/01/31 00:31:38;;;;;;;11.50;6.78;;;;;;;;;;5067617;28;20040;-72
2024/01/31 00:34:04;;;;;;;13.68;7.28;;;;;;;;;;5069670;28;20060;-68
2024/01/31 00:36:31;;;;;;;13.30;7.28;;;;;;;;;;5069498;28;20048;-73
2024/01/31 00:38:59;;;;;;;11.57;6.90;;;;;;;;;;5069252;28;20064;-70
2024/01/31 00:41:25;;;;;;;13.38;6.72;;;;;;;;;;5068841;28;20087;-67
2024/01/31 00:43:52;;;;;;;15.77;7.03;;;;;;;;;;5069216;28;20082;-67
2024/01/31 00:46:18;;;;;;;10.98;6.60;;;;;;;;;;5069416;28;20083;-72
2024/01/31 00:48:45;;;;;;;11.52;5.72;;;;;;;;;;5068820;28;20052;-71
2024/01/31 00:51:12;;;;;;;15.35;6.75;;;;;;;;;;5068923;28;20045;-67
2024/01/31 00:53:38;;;;;;;11.60;6.43;;;;;;;;;;5061524;28;20103;-67
2024/01/31 00:56:05;;;;;;;7.80;4.72;;;;;;;;;;5064547;28;20139;-73
2024/01/31 00:58:32;;;;;;;7.88;4.75;;;;;;;;;;5068762;28;20111;-68
2024/01/31 01:00:58;;;;;;;12.35;5.63;;;;;;;;;;5068986;28;20331;-71
2024/01/31 01:03:25;;;;;;;6.85;5.13;;;;;;;;;;5069111;28;20087;-71
2024/01/31 01:05:51;;;;;;;6.15;3.88;;;;;;;;;;5068915;28;20052;-72
2024/01/31 01:08:18;;;;;;;11.43;4.68;;;;;;;;;;5068295;28;20083;-68
2024/01/31 01:10:44;;;;;;;6.63;3.65;;;;;;;;;;5050611;28;20071;-70
2024/01/31 01:13:11;;;;;;;7.38;3.90;;;;;;;;;;5068678;28;20044;-70
2024/01/31 01:15:37;;;;;;;6.30;3.47;;;;;;;;;;5068476;28;20052;-71
2024/01/31 01:18:04;;;;;;;6.80;3.35;;;;;;;;;;5068237;28;20056;-69
2024/01/31 01:20:30;;;;;;;6.25;3.15;;;;;;;;;;5068298;28;20045;-71
2024/01/31 01:22:57;;;;;;;6.90;3.17;;;;;;;;;;5068605;28;20044;-69
2024/01/31 01:25:23;;;;;;;5.38;3.33;;;;;;;;;;5068704;28;20076;-71
2024/01/31 01:27:53;;;;;;;5.60;3.03;;;;;;;;;;5068405;28;20571;-68
2024/01/31 01:30:20;;;;;;;5.75;3.42;;;;;;;;;;5068208;28;20053;-69
2024/01/31 01:32:46;;;;;;;4.35;2.45;;;;;;;;;;5068317;28;20053;-67
2024/01/31 01:35:13;;;;;;;5.55;3.28;;;;;;;;;;5068293;28;20122;-70
2024/01/31 01:37:40;;;;;;;7.45;3.28;;;;;;;;;;5068289;28;20057;-75
2024/01/31 01:40:08;;;;;;;3.75;2.40;;;;;;;;;;5068535;28;20131;-69
2024/01/31 01:42:40;;;;;;;6.55;2.80;;;;;;;;;;5067242;28;20041;-73
2024/01/31 01:45:07;;;;;;;5.88;3.30;;;;;;;;;;5068946;28;20048;-68
2024/01/31 01:47:34;;;;;;;7.75;3.58;;;;;;;;;;5055726;28;20049;-69
2024/01/31 01:50:02;;;;;;;6.90;3.80;;;;;;;;;;5048766;28;20049;-64
2024/01/31 01:52:29;;;;;;;5.50;3.53;;;;;;;;;;5030654;28;20118;-69
2024/01/31 01:54:56;;;;;;;7.50;4.32;;;;;;;;;;5054346;28;20040;-67
2024/01/31 01:57:24;;;;;;;4.97;3.42;;;;;;;;;;5049667;28;20052;-66
2024/01/31 01:59:51;;;;;;;7.07;4.50;;;;;;;;;;5068035;28;20456;-73
2024/01/31 02:02:17;;;;;;;7.47;4.07;;;;;;;;;;5067792;28;20079;-72
2024/01/31 02:04:44;;;;;;;14.18;4.57;;;;;;;;;;5049891;28;20144;-69
2024/01/31 02:07:11;;;;;;;8.70;3.90;;;;;;;;;;5067497;28;20041;-68
2024/01/31 02:09:37;;;;;;;8.90;4.32;;;;;;;;;;5067636;28;20118;-69
2024/01/31 02:12:04;;;;;;;5.93;4.43;;;;;;;;;;5067556;28;20056;-68
2024/01/31 02:14:30;;;;;;;6.82;4.53;;;;;;;;;;5064672;28;20052;-70
2024/01/31 02:16:57;;;;;;;9.82;4.25;;;;;;;;;;5049912;28;20049;-75
2024/01/31 02:19:23;;;;;;;6.82;4.57;;;;;;;;;;5067256;28;20131;-72
2024/01/31 02:21:51;;;;;;;7.47;4.30;;;;;;;;;;5067643;28;20059;-67
2024/01/31 02:24:17;;;;;;;7.88;3.97;;;;;;;;;;5067797;28;20120;-70
2024/01/31 02:26:46;;;;;;;6.45;3.90;;;;;;;;;;5067592;28;20048;-67
2024/01/31 02:29:12;;;;;;;8.35;3.67;;;;;;;;;;5067014;28;20056;-67
2024/01/31 02:31:39;;;;;;;7.00;3.80;;;;;;;;;;5067243;28;20084;-69
2024/01/31 02:34:05;;;;;;;5.57;3.05;;;;;;;;;;5068921;28;20064;-70
2024/01/31 02:36:32;;;;;;;6.53;3.20;;;;;;;;;;5068818;28;20469;-67
2024/01/31 02:38:58;;;;;;;10.45;2.92;;;;;;;;;;5066930;28;20060;-71
2024/01/31 02:41:24;;;;;;;5.05;2.95;;;;;;;;;;5067223;28;20443;-68
2024/01/31 02:43:51;;;;;;;6.45;2.08;;;;;;;;;;5067088;28;20053;-70
2024/01/31 02:46:17;;;;;;;4.43;2.63;;;;;;;;;;5067313;28;20051;-72
2024/01/31 02:48:45;;;;;;;4.22;1.92;;;;;;;;;;5066874;28;20139;-71
2024/01/31 02:51:12;;;;;;;3.28;2.45;;;;;;;;;;5066540;28;20055;-68
2024/01/31 02:53:39;;;;;;;2.97;1.88;;;;;;;;;;5066587;28;20049;-70
2024/01/31 02:56:07;;;;;;;7.07;1.98;;;;;;;;;;5065984;28;20634;-67
2024/01/31 02:58:33;;;;;;;3.17;2.08;;;;;;;;;;5067170;28;20049;-69
2024/01/31 03:01:00;;;;;;;4.45;1.58;;;;;;;;;;5069040;28;20501;-69
2024/01/31 03:03:27;;;;;;;5.63;2.17;;;;;;;;;;5067374;28;20137;-67
2024/01/31 03:05:53;;;;;;;5.57;2.30;;;;;;;;;;5066395;28;20049;-69
2024/01/31 03:08:20;;;;;;;3.20;2.00;;;;;;;;;;5058531;28;20091;-72
2024/01/31 03:10:46;;;;;;;3.38;2.17;;;;;;;;;;5047181;28;20049;-71
2024/01/31 03:13:14;;;;;;;3.42;1.77;;;;;;;;;;5032792;28;20036;-70
2024/01/31 03:15:40;;;;;;;3.80;2.08;;;;;;;;;;5066764;28;20044;-67
2024/01/31 03:18:07;;;;;;;5.13;2.63;;;;;;;;;;5066318;28;20056;-68
2024/01/31 03:20:34;;;;;;;4.13;2.60;;;;;;;;;;5066094;28;20044;-67
2024/01/31 03:23:01;;;;;;;4.25;2.17;;;;;;;;;;5065921;28;20044;-70
2024/01/31 03:25:27;;;;;;;3.70;2.45;;;;;;;;;;5067992;28;20108;-70
2024/01/31 03:27:53;;;;;;;3.88;2.17;;;;;;;;;;5067575;28;20049;-70
2024/01/31 03:30:20;;;;;;;6.38;2.80;;;;;;;;;;5066492;28;20098;-70
2024/01/31 03:32:46;;;;;;;4.70;2.08;;;;;;;;;;5066468;28;20085;-70
2024/01/31 03:35:13;;;;;;;5.75;2.58;;;;;;;;;;5065870;28;20052;-69
2024/01/31 03:37:39;;;;;;;3.70;2.00;;;;;;;;;;5065113;28;20106;-68
2024/01/31 03:40:07;;;;;;;3.20;1.38;;;;;;;;;;5047241;28;20106;-72
2024/01/31 03:42:33;;;;;;;4.90;1.20;;;;;;;;;;5048354;28;20447;-68
2024/01/31 03:45:00;;;;;;;1.73;1.20;;;;;;;;;;5065803;28;20056;-71
2024/01/31 03:47:26;;;;;;;2.30;1.00;;;;;;;;;;5065994;28;20052;-66
2024/01/31 03:49:53;;;;;;;1.17;0.80;;;;;;;;;;5068005;28;20075;-68
2024/01/31 03:52:20;;;;;;;5.68;0.95;;;;;;;;;;5069158;28;20080;-69
2024/01/31 03:54:46;;;;;;;1.25;0.60;;;;;;;;;;5065816;28;20051;-66
2024/01/31 03:57:13;;;;;;;4.93;1.17;;;;;;;;;;5066351;28;20701;-70
2024/01/31 03:59:39;;;;;;;1.42;0.63;;;;;;;;;;5066306;28;20075;-73
2024/01/31 04:02:05;;;;;;;2.25;0.80;;;;;;;;;;5066449;28;20048;-70
2024/01/31 04:04:32;;;;;;;0.90;0.55;;;;;;;;;;5066705;28;20053;-70
2024/01/31 04:06:59;;;;;;;1.58;0.70;;;;;;;;;;5068560;28;20127;-71
2024/01/31 04:09:25;;;;;;;3.00;0.50;;;;;;;;;;5069736;28;20146;-71
2024/01/31 04:11:52;;;;;;;2.20;0.60;;;;;;;;;;5070115;28;20052;-72
2024/01/31 04:14:18;;;;;;;3.45;0.50;;;;;;;;;;5070237;28;20093;-69
2024/01/31 04:16:46;;;;;;;1.35;0.50;;;;;;;;;;5069738;28;20044;-70
2024/01/31 04:19:13;;;;;;;2.55;0.60;;;;;;;;;;5069237;28;20052;-70
2024/01/31 04:21:39;;;;;;;1.90;0.50;;;;;;;;;;5052291;28;20473;-69
2024/01/31 04:24:05;;;;;;;1.10;0.70;;;;;;;;;;5069808;28;20056;-67
2024/01/31 04:26:32;;;;;;;1.45;1.10;;;;;;;;;;5051686;28;20745;-69
2024/01/31 04:28:58;;;;;;;1.10;0.60;;;;;;;;;;5069350;28;20102;-68
2024/01/31 04:31:25;;;;;;;2.55;0.45;;;;;;;;;;5069642;28;20141;-68
2024/01/31 04:33:51;;;;;;;0.73;0.50;;;;;;;;;;5069760;28;20058;-70
2024/01/31 04:36:18;;;;;;;1.05;0.60;;;;;;;;;;5069881;28;20751;-74
2024/01/31 04:38:44;;;;;;;0.90;0.60;;;;;;;;;;5069249;28;20052;-68
2024/01/31 04:41:11;;;;;;;9.13;0.55;;;;;;;;;;5068947;28;20087;-69
2024/01/31 04:43:37;;;;;;;1.08;0.60;;;;;;;;;;5069691;28;20139;-69
2024/01/31 04:46:04;;;;;;;1.45;0.73;;;;;;;;;;5068190;28;20754;-68
2024/01/31 04:48:30;;;;;;;1.63;0.73;;;;;;;;;;5069429;28;20044;-74
2024/01/31 04:50:57;;;;;;;1.45;0.68;;;;;;;;;;5069059;28;20048;-71
2024/01/31 04:53:23;;;;;;;1.33;0.73;;;;;;;;;;5069780;28;20083;-69
2024/01/31 04:55:49;;;;;;;3.65;0.90;;;;;;;;;;5069195;28;20048;-70
2024/01/31 04:58:16;;;;;;;3.92;0.70;;;;;;;;;;5068439;28;20134;-70
2024/01/31 05:00:42;;;;;;;3.92;0.70;;;;;;;;;;5050967;28;20053;-73
2024/01/31 05:03:09;;;;;;;1.23;0.65;;;;;;;;;;5069242;28;20091;-72
2024/01/31 05:05:36;;;;;;;4.05;1.38;;;;;;;;;;5069285;28;20775;-68
2024/01/31 05:08:03;;;;;;;1.17;0.60;;;;;;;;;;5051055;28;20048;-73
2024/01/31 05:10:32;;;;;;;2.15;0.55;;;;;;;;;;5069196;28;20056;-68
2024/01/31 05:12:58;;;;;;;0.98;0.40;;;;;;;;;;5069026;28;20090;-70
2024/01/31 05:15:25;;;;;;;1.38;0.50;;;;;;;;;;5069309;28;20063;-68
2024/01/31 05:17:51;;;;;;;1.20;0.30;;;;;;;;;;5067048;28;20053;-68
2024/01/31 05:20:18;;;;;;;1.58;0.50;;;;;;;;;;5068897;28;20499;-71
2024/01/31 05:22:44;;;;;;;1.27;0.40;;;;;;;;;;5068828;28;20101;-69
2024/01/31 05:25:11;;;;;;;1.23;0.60;;;;;;;;;;5067559;28;20060;-70
2024/01/31 05:27:37;;;;;;;0.50;0.40;;;;;;;;;;5048463;28;20048;-70
2024/01/31 05:30:04;;;;;;;0.30;0.30;;;;;;;;;;5031093;28;20464;-70
2024/01/31 05:32:31;;;;;;;4.60;0.60;;;;;;;;;;5048687;28;20700;-69
2024/01/31 05:34:58;;;;;;;1.52;0.60;;;;;;;;;;5048500;28;20059;-70
2024/01/31 05:37:24;;;;;;;0.93;0.50;;;;;;;;;;5048472;28;20075;-69
2024/01/31 05:39:51;;;;;;;1.10;0.57;;;;;;;;;;5049018;28;20600;-72
2024/01/31 05:42:17;;;;;;;1.05;0.50;;;;;;;;;;5048737;28;20516;-67
2024/01/31 05:44:43;;;;;;;1.92;1.20;;;;;;;;;;5045664;28;20131;-72
2024/01/31 05:47:10;;;;;;;1.17;0.43;;;;;;;;;;5067955;28;20044;-72
2024/01/31 05:49:36;;;;;;;0.43;0.30;;;;;;;;;;5050759;28;20060;-67
2024/01/31 05:52:03;;;;;;;1.45;0.50;;;;;;;;;;5068242;28;20053;-69
2024/01/31 05:54:30;;;;;;;2.00;0.50;;;;;;;;;;5051129;28;20247;-71
2024/01/31 05:56:56;;;;;;;1.25;0.40;;;;;;;;;;5069408;28;20082;-67
2024/01/31 05:59:25;;;;;;;3.20;0.60;;;;;;;;;;5068687;28;20053;-67
2024/01/31 06:01:51;;;;;;;0.47;0.43;;;;;;;;;;5068185;28;20049;-70
2024/01/31 06:04:18;;;;;;;1.63;0.80;;;;;;;;;;5068196;28;20048;-70
2024/01/31 06:06:44;;;;;;;0.88;0.40;;;;;;;;;;5067881;28;20048;-70
2024/01/31 06:09:12;;;;;;;0.80;0.70;;;;;;;;;;5067289;28;20044;-71
2024/01/31 06:11:39;;;;;;;0.82;0.32;;;;;;;;;;5049965;28;20098;-70
2024/01/31 06:14:06;;;;;;;0.60;0.40;;;;;;;;;;5068002;28;20139;-71
2024/01/31 06:16:33;;;;;;;2.35;0.68;;;;;;;;;;5050086;28;20048;-72
2024/01/31 06:19:00;;;;;;;0.35;0.30;;;;;;;;;;5066948;28;20076;-68
2024/01/31 06:21:27;;;;;;;2.97;0.95;;;;;;;;;;5068221;28;20053;-72
2024/01/31 06:23:55;;;;;;;0.70;0.45;;;;;;;;;;5068897;28;20052;-69
2024/01/31 06:26:22;;;;;;;1.27;0.98;;;;;;;;;;5067818;28;20048;-75
2024/01/31 06:28:49;;;;;;;2.28;0.40;;;;;;;;;;5067354;28;20107;-71
2024/01/31 06:31:25;;;;;;;2.25;1.23;;;;;;;;;;5067560;28;20040;-69
2024/01/31 06:33:52;;;;;;;1.08;0.57;;;;;;;;;;5050000;28;20056;-70
2024/01/31 06:36:19;;;;;;;2.95;1.05;;;;;;;;;;5067394;28;20056;-70
2024/01/31 06:38:49;;;;;;;0.65;0.57;;;;;;;;;;5067714;28;20049;-69
2024/01/31 06:41:16;;;;;;;1.50;0.93;;;;;;;;;;5067051;28;20052;-69
2024/01/31 06:43:42;;;;;;;2.25;0.73;;;;;;;;;;5067230;28;20049;-70
2024/01/31 06:46:09;;;;;;;3.13;0.80;;;;;;;;;;5066321;28;20203;-70
2024/01/31 06:48:35;;;;;;;3.53;0.50;;;;;;;;;;5069670;28;20048;-70
2024/01/31 06:51:02;;;;;;;3.88;0.70;;;;;;;;;;5067585;28;20052;-68
2024/01/31 06:53:29;;;;;;;1.42;0.70;;;;;;;;;;5067097;28;20603;-69
2024/01/31 06:55:55;;;;;;;2.60;0.70;;;;;;;;;;5066961;28;20110;-72
2024/01/31 06:58:22;;;;;;;6.55;0.77;;;;;;;;;;5066574;28;20045;-70
2024/01/31 07:00:48;;;;;;;2.88;1.35;;;;;;;;;;5066805;28;20056;-67
2024/01/31 07:03:16;;;;;;;4.15;0.85;;;;;;;;;;5049412;28;20052;-67
2024/01/31 07:05:42;;;;;;;2.53;1.20;;;;;;;;;;5066702;28;20058;-67
2024/01/31 07:08:09;;;;;;;2.92;0.80;;;;;;;;;;5066062;28;20108;-69
2024/01/31 07:10:35;;;;;;;3.30;0.90;;;;;;;;;;5066374;28;20056;-70
2024/01/31 07:13:02;;;;;;;2.42;0.80;;;;;;;;;;5068129;28;20096;-71
2024/01/31 07:15:28;;;;;;;3.97;1.00;;;;;;;;;;5062216;28;20396;-69
2024/01/31 07:17:54;;;;;;;2.85;1.15;;;;;;;;;;5046350;28;20110;-71
2024/01/31 07:20:22;;;;;;;2.83;1.50;;;;;;;;;;5046730;28;20053;-67
2024/01/31 07:22:48;;;;;;;2.13;0.90;;;;;;;;;;5046650;28;20106;-72
2024/01/31 07:25:15;;;;;;;1.33;0.85;;;;;;;;;;5061879;28;20052;-69
2024/01/31 07:27:43;;;;;;;1.88;0.80;;;;;;;;;;5046350;28;20087;-72
2024/01/31 07:30:11;;;;;;;3.97;0.88;;;;;;;;;;5046378;28;20057;-71
2024/01/31 07:32:37;;;;;;;1.35;0.60;;;;;;;;;;5046734;28;20110;-67
2024/01/31 07:35:04;;;;;;;5.07;1.55;;;;;;;;;;5046129;28;20049;-71
2024/01/31 07:37:30;;;;;;;1.70;0.80;;;;;;;;;;5046054;28;20040;-69
2024/01/31 07:39:58;;;;;;;2.80;0.93;;;;;;;;;;5045941;28;20136;-70
2024/01/31 07:42:26;;;;;;;3.28;1.45;;;;;;;;;;5044458;28;20408;-73
2024/01/31 07:44:53;;;;;;;2.80;0.90;;;;;;;;;;5062652;28;20525;-72
2024/01/31 07:47:19;;;;;;;1.05;0.88;;;;;;;;;;5065774;28;20102;-68
2024/01/31 07:49:46;;;;;;;6.15;0.70;;;;;;;;;;5066440;28;20044;-66
2024/01/31 07:52:12;;;;;;;2.80;0.90;;;;;;;;;;5065458;28;20051;-72
2024/01/31 07:54:39;;;;;;;2.80;0.90;;;;;;;;;;5066240;28;20051;-72
2024/01/31 07:57:05;;;;;;;4.10;1.00;;;;;;;;;;5065930;28;20060;-75
2024/01/31 07:59:32;;;;;;;1.88;0.90;;;;;;;;;;5065646;28;20155;-69
2024/01/31 08:01:58;;;;;;;2.50;0.68;;;;;;;;;;5048338;28;20052;-68
2024/01/31 08:04:24;;;;;;;2.53;0.95;;;;;;;;;;5066339;28;20048;-66
2024/01/31 08:06:51;;;;;;;1.73;0.70;;;;;;;;;;5066046;28;20127;-71
2024/01/31 08:09:22;;;;;;;2.15;0.50;;;;;;;;;;5065487;28;20056;-71
2024/01/31 08:11:49;;;;;;;6.43;0.93;;;;;;;;;;5048314;28;20128;-69
2024/01/31 08:14:15;;;;;;;1.45;0.80;;;;;;;;;;5058669;28;20056;-70
2024/01/31 08:16:42;;;;;;;2.65;0.85;;;;;;;;;;5066188;28;20048;-68
2024/01/31 08:19:09;;;;;;;0.95;0.70;;;;;;;;;;5065476;28;20548;-72
2024/01/31 08:21:36;;;;;;;2.53;0.75;;;;;;;;;;5066091;28;20114;-69
2024/01/31 08:24:02;;;;;;;2.10;1.00;;;;;;;;;;5066246;28;20044;-72
2024/01/31 08:26:29;;;;;;;3.88;1.10;;;;;;;;;;5065782;28;20087;-67
2024/01/31 08:28:55;;;;;;;3.60;1.30;;;;;;;;;;5048034;28;20052;-70
2024/01/31 08:31:40;;;;;;;2.30;0.82;;;;;;;;;;5065862;28;20048;-71
2024/01/31 08:34:07;;;;;;;1.45;0.77;;;;;;;;;;5065926;28;20084;-67
2024/01/31 08:36:33;;;;;;;1.15;0.70;;;;;;;;;;5065605;28;20459;-69
2024/01/31 08:39:00;;;;;;;2.88;0.55;;;;;;;;;;5065372;28;20049;-73
2024/01/31 08:41:26;;;;;;;0.52;0.50;;;;;;;;;;5047474;28;20125;-69
2024/01/31 08:43:53;;;;;;;2.28;0.40;;;;;;;;;;5065753;28;20056;-70
2024/01/31 08:46:19;;;;;;;1.25;0.47;;;;;;;;;;5065701;28;20040;-70
2024/01/31 08:48:46;;;;;;;1.90;0.60;;;;;;;;;;5065414;28;20048;-67
2024/01/31 08:51:14;;;;;;;4.28;0.43;;;;;;;;;;5065063;28;20102;-69
2024/01/31 08:53:42;;;;;;;3.00;1.10;;;;;;;;;;5069486;28;20485;-69
2024/01/31 08:56:09;;;;;;;0.70;0.50;;;;;;;;;;5069465;28;20070;-69
2024/01/31 08:58:35;;;;;;;1.98;0.93;;;;;;;;;;5069321;28;20045;-70
2024/01/31 09:01:03;;;;;;;6.95;1.05;;;;;;;;;;5068730;28;20041;-68
2024/01/31 09:03:29;;;;;;;1.52;0.70;;;;;;;;;;5068682;28;20044;-68
2024/01/31 09:05:56;;;;;;;1.40;0.63;;;;;;;;;;5069203;28;20094;-70
2024/01/31 09:08:24;;;;;;;3.08;0.52;;;;;;;;;;5068921;28;20076;-66
2024/01/31 09:10:50;;;;;;;1.80;0.65;;;;;;;;;;5068521;28;20155;-70
2024/01/31 09:13:19;;;;;;;3.70;0.95;;;;;;;;;;5047672;28;20049;-68
2024/01/31 09:15:45;;;;;;;3.75;0.85;;;;;;;;;;5048732;28;20048;-72
2024/01/31 09:18:12;;;;;;;1.33;0.70;;;;;;;;;;5047848;28;20139;-67
2024/01/31 09:20:38;;;;;;;2.03;0.60;;;;;;;;;;5047434;28;20049;-70
2024/01/31 09:23:05;;;;;;;2.22;0.65;;;;;;;;;;5048715;28;20087;-70
2024/01/31 09:25:32;;;;;;;1.60;0.40;;;;;;;;;;5031477;28;20073;-72
2024/01/31 09:27:59;;;;;;;1.15;0.75;;;;;;;;;;5048487;28;20049;-72
2024/01/31 09:30:25;;;;;;;4.93;0.77;;;;;;;;;;5048300;28;20051;-72
2024/01/31 09:32:52;;;;;;;1.33;0.80;;;;;;;;;;5048969;28;20128;-69
2024/01/31 09:35:18;;;;;;;2.55;0.95;;;;;;;;;;5048481;28;20056;-68
2024/01/31 09:37:45;;;;;;;4.55;0.70;;;;;;;;;;5048891;28;20065;-66
2024/01/31 09:40:15;;;;;;;2.83;0.85;;;;;;;;;;5048407;28;20152;-70
2024/01/31 09:42:45;;;;;;;4.68;0.98;;;;;;;;;;5048919;28;20047;-69
2024/01/31 09:45:12;;;;;;;2.80;0.60;;;;;;;;;;5068940;28;20078;-71
2024/01/31 09:47:39;;;;;;;2.47;0.68;;;;;;;;;;5068699;28;20072;-67
2024/01/31 09:50:06;;;;;;;2.55;0.90;;;;;;;;;;5068036;28;20059;-69
2024/01/31 09:52:38;;;;;;;5.43;1.40;;;;;;;;;;5068007;28;20044;-69
2024/01/31 09:55:08;;;;;;;4.57;0.70;;;;;;;;;;5068506;28;20048;-71
2024/01/31 09:57:35;;;;;;;1.92;0.90;;;;;;;;;;5068157;28;20106;-71
2024/01/31 10:00:05;;;;;;;1.95;0.90;;;;;;;;;;5068145;28;20639;-71
2024/01/31 10:02:32;;;;;;;3.47;1.00;;;;;;;;;;5068194;28;20141;-69
2024/01/31 10:04:58;;;;;;;2.80;1.25;;;;;;;;;;5067572;28;20171;-68
2024/01/31 10:07:28;;;;;;;5.47;1.23;;;;;;;;;;5050081;28;20044;-69
2024/01/31 10:09:56;;;;;;;3.10;1.02;;;;;;;;;;5068825;28;20052;-68
2024/01/31 10:12:23;;;;;;;2.47;0.90;;;;;;;;;;5066279;28;20049;-68
2024/01/31 10:14:53;;;;;;;4.65;1.02;;;;;;;;;;5067926;28;20045;-69
2024/01/31 10:17:20;;;;;;;7.45;1.08;;;;;;;;;;5067195;28;20078;-66
2024/01/31 10:19:48;;;;;;;3.95;1.45;;;;;;;;;;5067883;28;20600;-68
2024/01/31 10:22:14;;;;;;;4.72;1.35;;;;;;;;;;5067137;28;20162;-72
2024/01/31 10:24:45;;;;;;;5.28;1.10;;;;;;;;;;5068024;28;20135;-71
2024/01/31 10:27:11;;;;;;;4.87;1.53;;;;;;;;;;5066753;28;20054;-71
2024/01/31 10:29:38;;;;;;;3.88;1.08;;;;;;;;;;5067839;28;20060;-70
2024/01/31 10:32:05;;;;;;;3.90;1.15;;;;;;;;;;5067515;28;20063;-70
2024/01/31 10:34:34;;;;;;;5.00;1.58;;;;;;;;;;5067866;28;20087;-70
2024/01/31 10:37:20;;;;;;;5.22;1.48;;;;;;;;;;5066867;28;20067;-73
2024/01/31 10:39:50;;;;;;;5.15;1.38;;;;;;;;;;5067373;28;20048;-71
2024/01/31 10:42:17;;;;;;;5.22;1.40;;;;;;;;;;5066000;28;20637;-71
2024/01/31 10:44:46;;;;;;;7.18;1.70;;;;;;;;;;5067628;28;20056;-67
2024/01/31 10:47:13;;;;;;;2.28;0.90;;;;;;;;;;5066926;28;20485;-72
2024/01/31 10:49:39;;;;;;;7.03;1.88;;;;;;;;;;5066906;28;20094;-73
2024/01/31 10:52:09;;;;;;;15.00;1.98;;;;;;;;;;5067115;28;20392;-72
2024/01/31 10:54:39;;;;;;;9.45;2.40;;;;;;;;;;5066954;28;20131;-71
2024/01/31 10:57:06;;;;;;;9.10;1.23;;;;;;;;;;5067347;28;20076;-72
2024/01/31 10:59:36;;;;;;;6.75;1.20;;;;;;;;;;5067326;28;20048;-69
2024/01/31 11:02:03;;;;;;;9.65;1.90;;;;;;;;;;5066414;28;20049;-73
2024/01/31 11:04:29;;;;;;;10.80;1.83;;;;;;;;;;5066860;28;20044;-72
2024/01/31 11:06:59;;;;;;;9.55;1.13;;;;;;;;;;5066828;28;20048;-72
2024/01/31 11:09:26;;;;;;;8.05;1.90;;;;;;;;;;5048945;28;20056;-71
2024/01/31 11:12:05;;;;;;;7.20;1.48;;;;;;;;;;5066681;28;20060;-69
2024/01/31 11:14:32;;;;;;;7.28;1.20;;;;;;;;;;5066917;28;20488;-69
2024/01/31 11:17:12;;;;;;;3.17;1.35;;;;;;;;;;5066288;28;20048;-68
2024/01/31 11:19:45;;;;;;;8.73;2.10;;;;;;;;;;5049074;28;20056;-67
2024/01/31 11:22:12;;;;;;;13.63;1.98;;;;;;;;;;5065885;28;20083;-71
2024/01/31 11:24:39;;;;;;;3.22;1.58;;;;;;;;;;5066508;28;20371;-71
2024/01/31 11:27:06;;;;;;;7.40;1.88;;;;;;;;;;5066129;28;20056;-75
2024/01/31 11:29:32;;;;;;;9.93;2.08;;;;;;;;;;5066616;28;20109;-70
2024/01/31 11:31:59;;;;;;;11.60;1.65;;;;;;;;;;5066339;28;20500;-67
2024/01/31 11:34:26;;;;;;;4.25;1.48;;;;;;;;;;5066377;28;20083;-71
2024/01/31 11:36:53;;;;;;;7.38;2.28;;;;;;;;;;5066856;28;20127;-72
2024/01/31 11:39:19;;;;;;;8.00;1.10;;;;;;;;;;5066071;28;20122;-70
2024/01/31 11:41:45;;;;;;;10.73;1.67;;;;;;;;;;5066080;28;20593;-70
2024/01/31 11:44:12;;;;;;;13.63;2.40;;;;;;;;;;5047984;28;20638;-69
2024/01/31 11:46:38;;;;;;;6.40;1.77;;;;;;;;;;5048296;28;20125;-73
2024/01/31 11:49:05;;;;;;;7.63;1.42;;;;;;;;;;5058545;28;20107;-67
2024/01/31 11:51:31;;;;;;;7.80;1.42;;;;;;;;;;5046094;28;20048;-70
2024/01/31 11:53:58;;;;;;;5.47;2.17;;;;;;;;;;5046564;28;20083;-69
2024/01/31 11:56:26;;;;;;;5.72;1.40;;;;;;;;;;5064757;28;20045;-72
2024/01/31 11:58:53;;;;;;;9.45;1.60;;;;;;;;;;5065743;28;20685;-68
2024/01/31 12:01:19;;;;;;;4.30;1.50;;;;;;;;;;5048156;28;20109;-69
2024/01/31 12:03:46;;;;;;;7.78;2.05;;;;;;;;;;5066235;28;20049;-69
2024/01/31 12:06:21;;;;;;;5.40;1.10;;;;;;;;;;5066235;28;20378;-70
2024/01/31 12:08:49;;;;;;;6.57;1.67;;;;;;;;;;5065795;28;20363;-72
2024/01/31 12:11:16;;;;;;;5.63;2.05;;;;;;;;;;5066037;28;20048;-68
2024/01/31 12:13:44;;;;;;;12.73;1.80;;;;;;;;;;5066095;28;20078;-70
2024/01/31 12:16:11;;;;;;;7.85;1.60;;;;;;;;;;5052764;28;20417;-69
2024/01/31 12:18:37;;;;;;;7.28;1.50;;;;;;;;;;5045765;28;20114;-72
2024/01/31 12:21:04;;;;;;;6.47;1.98;;;;;;;;;;5045618;28;20128;-70
2024/01/31 12:23:31;;;;;;;5.03;1.08;;;;;;;;;;5045484;28;20544;-72
2024/01/31 12:25:58;;;;;;;8.18;1.33;;;;;;;;;;5045920;28;20174;-71
2024/01/31 12:28:24;;;;;;;4.25;1.20;;;;;;;;;;5049164;28;20474;-68
2024/01/31 12:30:51;;;;;;;3.72;1.20;;;;;;;;;;5049365;28;20056;-69
2024/01/31 12:33:18;;;;;;;9.05;1.67;;;;;;;;;;5049109;28;20080;-73
2024/01/31 12:35:44;;;;;;;4.18;1.50;;;;;;;;;;5049931;28;20048;-69
2024/01/31 12:38:11;;;;;;;4.03;1.05;;;;;;;;;;5049586;28;20571;-70
2024/01/31 12:40:37;;;;;;;2.05;0.98;;;;;;;;;;5049528;28;20061;-69
2024/01/31 12:43:04;;;;;;;6.47;2.85;;;;;;;;;;5050675;28;20053;-68
2024/01/31 12:45:33;;;;;;;6.45;1.60;;;;;;;;;;5069690;28;20121;-68
2024/01/31 12:47:59;;;;;;;3.63;1.00;;;;;;;;;;5069082;28;20400;-69
2024/01/31 12:50:26;;;;;;;3.92;1.33;;;;;;;;;;5069503;28;20048;-69
2024/01/31 12:52:53;;;;;;;7.38;1.55;;;;;;;;;;5069796;28;20048;-72
2024/01/31 12:55:19;;;;;;;6.22;1.80;;;;;;;;;;5069449;28;20048;-67
2024/01/31 12:57:46;;;;;;;4.15;1.70;;;;;;;;;;5069288;28;20526;-72
2024/01/31 13:00:13;;;;;;;2.80;1.35;;;;;;;;;;5069508;28;20056;-71
2024/01/31 13:02:39;;;;;;;5.97;1.20;;;;;;;;;;5069118;28;20058;-71
2024/01/31 13:05:07;;;;;;;5.15;1.33;;;;;;;;;;5051545;28;20052;-69
2024/01/31 13:07:34;;;;;;;3.95;1.38;;;;;;;;;;5051310;28;20051;-70
2024/01/31 13:10:00;;;;;;;3.25;1.20;;;;;;;;;;5063959;28;20071;-72
2024/01/31 13:12:27;;;;;;;6.35;1.67;;;;;;;;;;5050035;28;20575;-69
2024/01/31 13:14:53;;;;;;;4.78;1.92;;;;;;;;;;5066810;28;20084;-71
2024/01/31 13:17:20;;;;;;;3.95;1.38;;;;;;;;;;5051051;28;20044;-70
2024/01/31 13:19:46;;;;;;;11.10;1.50;;;;;;;;;;5069208;28;20145;-71
2024/01/31 13:22:13;;;;;;;2.28;1.60;;;;;;;;;;5069082;28;20106;-68
2024/01/31 13:24:39;;;;;;;3.05;1.83;;;;;;;;;;5069123;28;20408;-73
2024/01/31 13:27:06;;;;;;;4.35;1.90;;;;;;;;;;5069040;28;20041;-70
2024/01/31 13:29:33;;;;;;;4.65;2.15;;;;;;;;;;5067233;28;20048;-72
2024/01/31 13:31:59;;;;;;;6.95;1.83;;;;;;;;;;5068511;28;20528;-69
2024/01/31 13:34:26;;;;;;;10.23;2.15;;;;;;;;;;5067602;28;20116;-70
2024/01/31 13:36:53;;;;;;;5.18;2.22;;;;;;;;;;5051531;28;20052;-75
2024/01/31 13:39:22;;;;;;;3.22;1.50;;;;;;;;;;5049598;28;20581;-70
2024/01/31 13:41:48;;;;;;;5.63;1.63;;;;;;;;;;5068498;28;20138;-68
2024/01/31 13:44:15;;;;;;;5.03;2.13;;;;;;;;;;5068645;28;20739;-69
2024/01/31 13:46:41;;;;;;;2.70;1.42;;;;;;;;;;5051266;28;20048;-69
2024/01/31 13:49:08;;;;;;;3.03;1.73;;;;;;;;;;5068129;28;20052;-74
2024/01/31 13:51:40;;;;;;;6.07;1.83;;;;;;;;;;5068493;28;20080;-69
2024/01/31 13:54:06;;;;;;;6.30;2.35;;;;;;;;;;5068182;28;20052;-67
2024/01/31 13:56:36;;;;;;;5.72;1.98;;;;;;;;;;5068517;28;20047;-70
2024/01/31 13:59:02;;;;;;;3.05;1.70;;;;;;;;;;5067931;28;20135;-67
2024/01/31 14:01:29;;;;;;;3.33;2.03;;;;;;;;;;5068510;28;20048;-70
2024/01/31 14:03:56;;;;;;;6.25;2.25;;;;;;;;;;5067381;28;20097;-71
2024/01/31 14:06:22;;;;;;;6.63;2.55;;;;;;;;;;5039962;28;20060;-69
2024/01/31 14:08:49;;;;;;;4.60;2.28;;;;;;;;;;5048311;28;20048;-72
2024/01/31 14:11:19;;;;;;;4.00;2.47;;;;;;;;;;5050614;28;20115;-71
2024/01/31 14:13:46;;;;;;;3.22;2.33;;;;;;;;;;5058593;28;20056;-67
2024/01/31 14:16:14;;;;;;;3.22;2.08;;;;;;;;;;5068115;28;20086;-70
2024/01/31 14:18:41;;;;;;;5.28;3.05;;;;;;;;;;5066822;28;20048;-70
2024/01/31 14:21:08;;;;;;;3.60;2.10;;;;;;;;;;5049833;28;20052;-69
2024/01/31 14:23:34;;;;;;;2.33;1.98;;;;;;;;;;5068072;28;20128;-69
2024/01/31 14:26:10;;;;;;;3.42;2.10;;;;;;;;;;5067539;28;20052;-69
2024/01/31 14:28:39;;;;;;;6.28;2.20;;;;;;;;;;5066242;28;20540;-71
2024/01/31 14:31:07;;;;;;;6.25;2.97;;;;;;;;;;5061793;28;20049;-71
2024/01/31 14:33:34;;;;;;;11.55;2.60;;;;;;;;;;5047481;28;20088;-71
2024/01/31 14:36:01;;;;;;;3.40;2.47;;;;;;;;;;5047426;28;20077;-66
2024/01/31 14:38:28;;;;;;;5.30;2.70;;;;;;;;;;5058738;28;20084;-67
2024/01/31 14:40:55;;;;;;;7.07;3.08;;;;;;;;;;5067109;28;20048;-73